Time;durP1;ratioP1;P1;durP2;ratioP2;P2;SDS_P1;SDS_P2;PMS_P1;PMS_P2;Temp;Humidity;BMP_temperature;BMP_pressure;BME280_temperature;BME280_humidity;BME280_pressure;Samples;Min_cycle;Max_cycle;Signal;HPM_P1;HPM_P2
2020/12/29 00:02:25;;;;;;;;;1.75;1.25;;;;;;;;4951977;28;12257;-80
2020/12/29 00:04:52;;;;;;;;;1.00;1.00;;;;;;;;4955778;28;11550;-81
2020/12/29 00:07:19;;;;;;;;;0.50;0.50;;;;;;;;4949265;28;11533;-79
2020/12/29 00:09:46;;;;;;;;;1.00;1.00;;;;;;;;4951101;28;12350;-80
2020/12/29 00:12:13;;;;;;;;;3.00;3.00;;;;;;;;4945090;28;11549;-81
2020/12/29 00:14:40;;;;;;;;;1.00;1.00;;;;;;;;4952602;28;11548;-79
2020/12/29 00:17:07;;;;;;;;;3.00;3.00;;;;;;;;4934124;28;11598;-80
2020/12/29 00:19:34;;;;;;;;;2.00;2.00;;;;;;;;4951375;28;11529;-80
2020/12/29 00:22:01;;;;;;;;;3.00;2.00;;;;;;;;4951912;28;11555;-80
2020/12/29 00:24:28;;;;;;;;;5.50;3.00;;;;;;;;4946342;28;11596;-80
2020/12/29 00:26:54;;;;;;;;;1.00;1.00;;;;;;;;4946285;28;11537;-80
2020/12/29 00:29:21;;;;;;;;;3.50;3.50;;;;;;;;4948064;28;11508;-82
2020/12/29 00:31:50;;;;;;;;;1.75;1.00;;;;;;;;4952167;28;11511;-81
2020/12/29 00:34:17;;;;;;;;;1.00;1.00;;;;;;;;4946059;28;11503;-79
2020/12/29 00:36:44;;;;;;;;;4.00;4.00;;;;;;;;4929600;28;11550;-79
2020/12/29 00:39:11;;;;;;;;;4.50;4.50;;;;;;;;4936453;28;11534;-80
2020/12/29 00:41:38;;;;;;;;;2.50;2.50;;;;;;;;4949834;28;11584;-80
2020/12/29 00:44:05;;;;;;;;;2.00;2.00;;;;;;;;4958358;28;11560;-81
2020/12/29 00:46:32;;;;;;;;;5.50;4.50;;;;;;;;4957445;28;12768;-80
2020/12/29 00:48:59;;;;;;;;;4.00;4.00;;;;;;;;4932035;28;11066;-80
2020/12/29 00:51:29;;;;;;;;;3.50;3.50;;;;;;;;4927709;28;11532;-80
2020/12/29 00:53:56;;;;;;;;;4.00;4.00;;;;;;;;4947186;28;11538;-80
2020/12/29 00:56:22;;;;;;;;;4.50;4.50;;;;;;;;4944499;28;11563;-80
2020/12/29 00:58:52;;;;;;;;;5.00;5.00;;;;;;;;4950269;28;11568;-81
2020/12/29 01:01:19;;;;;;;;;6.75;5.50;;;;;;;;4929186;28;11479;-81
2020/12/29 01:03:46;;;;;;;;;7.00;5.50;;;;;;;;4944037;28;11690;-79
2020/12/29 01:06:13;;;;;;;;;7.00;7.00;;;;;;;;4945544;28;11551;-80
2020/12/29 01:08:41;;;;;;;;;6.75;6.00;;;;;;;;4953989;28;11574;-80
2020/12/29 01:11:10;;;;;;;;;5.75;5.00;;;;;;;;4944363;28;11659;-80
2020/12/29 01:13:39;;;;;;;;;9.25;8.00;;;;;;;;4953997;28;11576;-79
2020/12/29 01:16:06;;;;;;;;;9.50;7.25;;;;;;;;4950742;28;11498;-80
2020/12/29 01:18:41;;;;;;;;;4.50;4.50;;;;;;;;4954330;28;11541;-80
2020/12/29 01:21:10;;;;;;;;;8.00;5.50;;;;;;;;4955096;28;11498;-79
2020/12/29 01:23:37;;;;;;;;;8.00;8.00;;;;;;;;4954397;28;11586;-79
2020/12/29 01:26:07;;;;;;;;;7.00;7.00;;;;;;;;4928980;28;11593;-81
2020/12/29 01:28:34;;;;;;;;;15.75;13.00;;;;;;;;4943481;28;11540;-80
2020/12/29 01:31:02;;;;;;;;;8.00;8.00;;;;;;;;4949765;28;11620;-82
2020/12/29 01:33:28;;;;;;;;;5.00;5.00;;;;;;;;4945107;28;11520;-83
2020/12/29 01:35:55;;;;;;;;;10.75;8.50;;;;;;;;4949851;28;11517;-80
2020/12/29 01:38:22;;;;;;;;;13.50;11.00;;;;;;;;4933013;28;11656;-80
2020/12/29 01:40:49;;;;;;;;;16.25;11.50;;;;;;;;4931445;29;11649;-80
2020/12/29 01:43:17;;;;;;;;;10.25;10.25;;;;;;;;4948179;28;11591;-82
2020/12/29 01:45:44;;;;;;;;;16.25;12.00;;;;;;;;4951113;28;11571;-86
2020/12/29 01:48:11;;;;;;;;;16.00;13.00;;;;;;;;4928756;28;11604;-86
2020/12/29 01:50:38;;;;;;;;;20.50;14.50;;;;;;;;4935104;28;11620;-86
2020/12/29 01:53:05;;;;;;;;;14.00;12.00;;;;;;;;4948144;28;11575;-82
2020/12/29 01:55:33;;;;;;;;;15.50;12.00;;;;;;;;4935277;28;11566;-77
2020/12/29 01:58:00;;;;;;;;;19.00;16.25;;;;;;;;4950801;28;11554;-80
2020/12/29 02:00:29;;;;;;;;;19.75;14.00;;;;;;;;4946841;28;11554;-81
2020/12/29 02:02:57;;;;;;;;;25.25;23.50;;;;;;;;4931806;28;11685;-80
2020/12/29 02:05:26;;;;;;;;;23.00;20.75;;;;;;;;4950120;28;11728;-80
2020/12/29 02:07:53;;;;;;;;;22.50;20.25;;;;;;;;4950058;28;11631;-81
2020/12/29 02:10:20;;;;;;;;;23.00;21.50;;;;;;;;4948168;28;11576;-81
2020/12/29 02:12:47;;;;;;;;;22.25;19.25;;;;;;;;4947193;28;11628;-81
2020/12/29 02:15:14;;;;;;;;;22.25;22.25;;;;;;;;4950271;28;11564;-80
2020/12/29 02:17:42;;;;;;;;;10.25;10.25;;;;;;;;4942267;28;12412;-82
2020/12/29 02:20:10;;;;;;;;;16.75;15.00;;;;;;;;4956090;28;11561;-82
2020/12/29 02:22:40;;;;;;;;;18.25;15.50;;;;;;;;4954836;28;11598;-81
2020/12/29 02:25:08;;;;;;;;;15.75;13.75;;;;;;;;4941380;28;11577;-82
2020/12/29 02:27:48;;;;;;;;;17.50;11.00;;;;;;;;4953981;28;11598;-82
2020/12/29 02:30:16;;;;;;;;;15.00;15.00;;;;;;;;4952411;28;11514;-82
2020/12/29 02:32:43;;;;;;;;;13.00;13.00;;;;;;;;4951270;28;11574;-82
2020/12/29 02:35:11;;;;;;;;;17.25;14.00;;;;;;;;4939902;28;11542;-82
2020/12/29 02:37:39;;;;;;;;;17.25;13.25;;;;;;;;4952412;28;11639;-81
2020/12/29 02:40:06;;;;;;;;;20.00;17.50;;;;;;;;4948275;28;11662;-81
2020/12/29 02:42:33;;;;;;;;;26.25;22.25;;;;;;;;4956964;28;11587;-81
2020/12/29 02:45:00;;;;;;;;;34.00;32.00;;;;;;;;4949277;28;11583;-83
2020/12/29 02:47:27;;;;;;;;;40.75;33.25;;;;;;;;4963773;28;11643;-83
2020/12/29 02:49:54;;;;;;;;;39.33;34.33;;;;;;;;4956579;28;11599;-82
2020/12/29 02:52:21;;;;;;;;;31.50;26.00;;;;;;;;4939392;28;11699;-84
2020/12/29 02:54:49;;;;;;;;;46.00;39.00;;;;;;;;4953901;28;11605;-84
2020/12/29 02:57:15;;;;;;;;;41.75;38.00;;;;;;;;4936790;28;11612;-84
2020/12/29 02:59:42;;;;;;;;;36.75;30.25;;;;;;;;4949879;28;11575;-86
2020/12/29 03:02:09;;;;;;;;;39.00;26.75;;;;;;;;4958332;28;11670;-86
2020/12/29 03:04:36;;;;;;;;;42.75;35.75;;;;;;;;4956538;28;11585;-85
2020/12/29 03:07:03;;;;;;;;;27.25;26.00;;;;;;;;4954396;28;11539;-84
2020/12/29 03:09:30;;;;;;;;;23.00;18.50;;;;;;;;4956553;28;11571;-85
2020/12/29 03:11:57;;;;;;;;;23.50;19.75;;;;;;;;4952635;28;11645;-84
2020/12/29 03:14:24;;;;;;;;;19.25;16.25;;;;;;;;4948817;28;11595;-85
2020/12/29 03:16:51;;;;;;;;;13.75;11.00;;;;;;;;4956877;28;11583;-82
2020/12/29 03:19:18;;;;;;;;;14.50;14.50;;;;;;;;4958596;28;11584;-82
2020/12/29 03:21:45;;;;;;;;;14.75;11.75;;;;;;;;4938292;28;11608;-81
2020/12/29 03:24:13;;;;;;;;;14.00;12.50;;;;;;;;4947848;28;11645;-82
2020/12/29 03:26:40;;;;;;;;;20.00;16.75;;;;;;;;4940448;28;11562;-82
2020/12/29 03:29:07;;;;;;;;;26.00;16.50;;;;;;;;4959325;28;11572;-81
2020/12/29 03:31:38;;;;;;;;;16.75;14.25;;;;;;;;4946136;28;11642;-82
2020/12/29 03:34:21;;;;;;;;;14.00;14.00;;;;;;;;4951869;28;11549;-82
2020/12/29 03:36:48;;;;;;;;;16.75;14.25;;;;;;;;4951512;28;12294;-81
2020/12/29 03:39:15;;;;;;;;;14.75;14.75;;;;;;;;4950151;28;11605;-82
2020/12/29 03:41:41;;;;;;;;;18.50;17.00;;;;;;;;4930262;28;11596;-85
2020/12/29 03:44:09;;;;;;;;;18.25;14.50;;;;;;;;4949105;28;11617;-87
2020/12/29 03:46:36;;;;;;;;;17.25;17.25;;;;;;;;4936450;28;11647;-86
2020/12/29 03:49:03;;;;;;;;;14.75;14.25;;;;;;;;4947236;28;11653;-85
2020/12/29 03:51:30;;;;;;;;;18.25;14.00;;;;;;;;4958457;28;11602;-82
2020/12/29 03:53:57;;;;;;;;;17.75;16.00;;;;;;;;4950810;28;11591;-83
2020/12/29 03:56:24;;;;;;;;;13.25;13.25;;;;;;;;4955035;28;11586;-81
2020/12/29 03:58:50;;;;;;;;;14.00;12.50;;;;;;;;4950825;28;11604;-80
2020/12/29 04:01:18;;;;;;;;;24.25;24.25;;;;;;;;4952434;28;12337;-80
2020/12/29 04:03:48;;;;;;;;;16.50;16.50;;;;;;;;4945757;28;12316;-80
2020/12/29 04:06:15;;;;;;;;;16.75;13.75;;;;;;;;4944368;28;11560;-80
2020/12/29 04:08:42;;;;;;;;;17.75;17.75;;;;;;;;4947046;28;11614;-80
2020/12/29 04:11:08;;;;;;;;;17.75;15.00;;;;;;;;4945330;28;11539;-80
2020/12/29 04:13:35;;;;;;;;;26.75;23.00;;;;;;;;4947899;28;12397;-80
2020/12/29 04:16:02;;;;;;;;;18.00;14.50;;;;;;;;4945287;28;12303;-79
2020/12/29 04:18:30;;;;;;;;;19.00;14.75;;;;;;;;4914735;28;11592;-80
2020/12/29 04:20:58;;;;;;;;;21.00;20.50;;;;;;;;4945096;28;11635;-81
2020/12/29 04:23:26;;;;;;;;;21.50;17.00;;;;;;;;4945327;28;11606;-81
2020/12/29 04:25:53;;;;;;;;;28.50;21.50;;;;;;;;4934057;28;11674;-81
2020/12/29 04:28:19;;;;;;;;;26.75;21.50;;;;;;;;4950591;28;11692;-81
2020/12/29 04:30:46;;;;;;;;;46.25;34.00;;;;;;;;4956203;28;11542;-81
2020/12/29 04:33:13;;;;;;;;;26.50;19.50;;;;;;;;4944476;28;11605;-82
2020/12/29 04:35:40;;;;;;;;;28.25;20.75;;;;;;;;4949214;28;11632;-82
2020/12/29 04:38:07;;;;;;;;;25.75;22.25;;;;;;;;4943477;28;11613;-82
2020/12/29 04:40:34;;;;;;;;;14.25;14.25;;;;;;;;4946144;28;11648;-81
2020/12/29 04:43:01;;;;;;;;;15.75;15.75;;;;;;;;4949950;28;12369;-82
2020/12/29 04:45:28;;;;;;;;;20.50;16.50;;;;;;;;4945083;28;11580;-81
2020/12/29 04:47:55;;;;;;;;;17.25;17.00;;;;;;;;4947514;28;11591;-81
2020/12/29 04:50:22;;;;;;;;;25.25;22.50;;;;;;;;4932828;28;11649;-81
2020/12/29 04:52:57;;;;;;;;;18.00;18.00;;;;;;;;4945650;28;12333;-81
2020/12/29 04:55:30;;;;;;;;;22.50;19.75;;;;;;;;4952927;28;11629;-81
2020/12/29 04:57:58;;;;;;;;;34.25;25.00;;;;;;;;4944909;28;11550;-82
2020/12/29 05:00:26;;;;;;;;;20.50;17.00;;;;;;;;4950755;28;11540;-82
2020/12/29 05:02:53;;;;;;;;;25.25;22.00;;;;;;;;4944533;28;11635;-83
2020/12/29 05:05:21;;;;;;;;;31.50;26.75;;;;;;;;4952507;28;11598;-82
2020/12/29 05:07:50;;;;;;;;;27.00;24.75;;;;;;;;4927196;28;11642;-82
2020/12/29 05:10:16;;;;;;;;;34.25;24.75;;;;;;;;4953046;28;11631;-84
2020/12/29 05:12:50;;;;;;;;;20.25;17.50;;;;;;;;4946039;28;11620;-78
2020/12/29 05:15:17;;;;;;;;;29.75;27.00;;;;;;;;4951552;28;12417;-77
2020/12/29 05:17:44;;;;;;;;;35.25;29.75;;;;;;;;4949374;28;12501;-77
2020/12/29 05:20:11;;;;;;;;;33.00;28.50;;;;;;;;4944323;28;11617;-77
2020/12/29 05:22:41;;;;;;;;;24.25;21.75;;;;;;;;4952527;28;11537;-78
2020/12/29 05:25:09;;;;;;;;;38.25;28.50;;;;;;;;4948368;28;11631;-76
2020/12/29 05:27:37;;;;;;;;;22.50;22.50;;;;;;;;4949406;28;11538;-77
2020/12/29 05:30:05;;;;;;;;;30.75;25.75;;;;;;;;4951142;28;11631;-78
2020/12/29 05:32:37;;;;;;;;;31.00;27.25;;;;;;;;4945588;28;11640;-80
2020/12/29 05:35:10;;;;;;;;;36.50;30.50;;;;;;;;4937540;28;11651;-77
2020/12/29 05:37:39;;;;;;;;;40.00;29.75;;;;;;;;4938217;28;11716;-76
2020/12/29 05:40:27;;;;;;;;;26.75;22.25;;;;;;;;4943005;28;11607;-75
2020/12/29 05:42:56;;;;;;;;;32.50;32.00;;;;;;;;4949943;28;11605;-76
2020/12/29 05:45:25;;;;;;;;;27.00;25.50;;;;;;;;4953401;28;11634;-76
2020/12/29 05:47:56;;;;;;;;;24.25;22.00;;;;;;;;4950458;28;11585;-76
2020/12/29 05:50:24;;;;;;;;;26.25;23.75;;;;;;;;4948641;28;11606;-76
2020/12/29 05:52:53;;;;;;;;;43.50;39.50;;;;;;;;4954720;28;11584;-76
2020/12/29 05:55:21;;;;;;;;;42.25;38.75;;;;;;;;4952258;28;11557;-77
2020/12/29 05:58:01;;;;;;;;;18.25;18.25;;;;;;;;4948361;28;11708;-76
2020/12/29 06:00:28;;;;;;;;;31.25;25.50;;;;;;;;4947391;28;11515;-78
2020/12/29 06:02:56;;;;;;;;;19.75;19.75;;;;;;;;4947683;28;11701;-77
2020/12/29 06:05:27;;;;;;;;;19.50;17.50;;;;;;;;4952141;28;11704;-79
2020/12/29 06:07:55;;;;;;;;;28.75;21.75;;;;;;;;4950400;28;11609;-76
2020/12/29 06:10:22;;;;;;;;;36.75;30.25;;;;;;;;4964826;28;11550;-77
2020/12/29 06:12:53;;;;;;;;;33.00;27.75;;;;;;;;4955002;28;11628;-77
2020/12/29 06:15:29;;;;;;;;;28.00;24.75;;;;;;;;4950985;28;11574;-76
2020/12/29 06:17:58;;;;;;;;;29.75;28.00;;;;;;;;4955050;28;12336;-77
2020/12/29 06:20:29;;;;;;;;;59.00;43.25;;;;;;;;4955453;28;11620;-77
2020/12/29 06:23:01;;;;;;;;;27.50;25.00;;;;;;;;4954956;28;11557;-76
2020/12/29 06:25:33;;;;;;;;;28.25;28.25;;;;;;;;4953236;28;11666;-76
2020/12/29 06:28:01;;;;;;;;;35.00;26.00;;;;;;;;4952217;28;12387;-76
2020/12/29 06:30:30;;;;;;;;;39.00;33.00;;;;;;;;4952775;28;11557;-77
2020/12/29 06:32:57;;;;;;;;;23.00;20.50;;;;;;;;4953232;28;11626;-76
2020/12/29 06:35:24;;;;;;;;;25.50;25.00;;;;;;;;4954143;28;11716;-77
2020/12/29 06:38:00;;;;;;;;;28.75;26.00;;;;;;;;4952820;28;11553;-77
2020/12/29 06:40:29;;;;;;;;;20.50;15.50;;;;;;;;4956140;28;13655;-77
2020/12/29 06:42:55;;;;;;;;;24.75;23.00;;;;;;;;4952774;28;12333;-76
2020/12/29 06:45:22;;;;;;;;;25.00;22.50;;;;;;;;4953230;28;11609;-76
2020/12/29 06:47:50;;;;;;;;;19.50;13.25;;;;;;;;4955651;28;11647;-78
2020/12/29 06:50:25;;;;;;;;;70.00;50.25;;;;;;;;4951637;28;12386;-77
2020/12/29 06:52:56;;;;;;;;;27.75;21.75;;;;;;;;4950227;28;11667;-77
2020/12/29 06:55:23;;;;;;;;;28.50;23.75;;;;;;;;4952584;28;11760;-77
2020/12/29 06:57:51;;;;;;;;;15.00;15.00;;;;;;;;4951031;28;11553;-77
2020/12/29 07:00:19;;;;;;;;;22.00;22.00;;;;;;;;4960954;28;11578;-78
2020/12/29 07:02:47;;;;;;;;;21.50;18.25;;;;;;;;4963784;28;11147;-77
2020/12/29 07:05:16;;;;;;;;;21.25;16.75;;;;;;;;4956547;28;12368;-79
2020/12/29 07:07:47;;;;;;;;;27.75;18.25;;;;;;;;4946940;28;12494;-77
2020/12/29 07:10:15;;;;;;;;;18.75;17.50;;;;;;;;4939581;28;12440;-77
2020/12/29 07:12:47;;;;;;;;;20.50;18.25;;;;;;;;4931165;28;11727;-78
2020/12/29 07:15:15;;;;;;;;;15.25;15.25;;;;;;;;4946986;28;11664;-78
2020/12/29 07:17:54;;;;;;;;;24.25;17.00;;;;;;;;4946333;28;11628;-77
2020/12/29 07:20:23;;;;;;;;;19.25;18.50;;;;;;;;4947653;28;11589;-77
2020/12/29 07:23:06;;;;;;;;;19.75;19.75;;;;;;;;4946479;28;12488;-78
2020/12/29 07:25:33;;;;;;;;;25.50;22.00;;;;;;;;4947160;28;11621;-78
2020/12/29 07:28:02;;;;;;;;;41.00;30.25;;;;;;;;4945861;28;11626;-79
2020/12/29 07:30:30;;;;;;;;;22.00;19.00;;;;;;;;4946508;28;11543;-78
2020/12/29 07:33:03;;;;;;;;;16.00;14.50;;;;;;;;4929789;28;11596;-78
2020/12/29 07:35:33;;;;;;;;;23.00;18.50;;;;;;;;4945240;28;11669;-80
2020/12/29 07:38:07;;;;;;;;;20.00;18.00;;;;;;;;4946715;28;11613;-76
2020/12/29 07:40:33;;;;;;;;;30.50;26.75;;;;;;;;4944183;28;11665;-73
2020/12/29 07:43:00;;;;;;;;;21.00;17.50;;;;;;;;4944694;28;11625;-72
2020/12/29 07:45:27;;;;;;;;;20.25;15.50;;;;;;;;4946496;28;11601;-73
2020/12/29 07:47:53;;;;;;;;;24.50;21.25;;;;;;;;4953689;28;11563;-73
2020/12/29 07:50:20;;;;;;;;;16.75;16.75;;;;;;;;4948025;28;11706;-73
2020/12/29 07:52:48;;;;;;;;;17.25;14.75;;;;;;;;4946314;28;11728;-73
2020/12/29 07:55:16;;;;;;;;;17.00;13.50;;;;;;;;4946022;28;11724;-72
2020/12/29 07:57:44;;;;;;;;;20.25;17.75;;;;;;;;4950363;28;11547;-73
2020/12/29 08:00:14;;;;;;;;;10.75;9.50;;;;;;;;4944759;28;11583;-73
2020/12/29 08:02:41;;;;;;;;;17.00;17.00;;;;;;;;4943821;28;11713;-73
2020/12/29 08:05:08;;;;;;;;;15.25;15.25;;;;;;;;4928704;28;11690;-72
2020/12/29 08:07:35;;;;;;;;;16.00;16.00;;;;;;;;4944865;28;11565;-73
2020/12/29 08:10:03;;;;;;;;;15.50;13.25;;;;;;;;4945133;28;11577;-73
2020/12/29 08:12:29;;;;;;;;;9.50;7.00;;;;;;;;4945525;28;11585;-72
2020/12/29 08:14:56;;;;;;;;;15.00;12.50;;;;;;;;4945084;28;11587;-73
2020/12/29 08:17:23;;;;;;;;;15.75;15.00;;;;;;;;4945646;28;11642;-72
2020/12/29 08:19:59;;;;;;;;;17.25;17.00;;;;;;;;4945169;28;11601;-73
2020/12/29 08:22:28;;;;;;;;;26.50;16.75;;;;;;;;4953169;28;11632;-74
2020/12/29 08:24:55;;;;;;;;;13.25;13.25;;;;;;;;4951643;28;11585;-74
2020/12/29 08:27:23;;;;;;;;;17.25;12.00;;;;;;;;4944532;28;11669;-74
2020/12/29 08:29:50;;;;;;;;;19.25;14.50;;;;;;;;4950777;28;11547;-74
2020/12/29 08:32:18;;;;;;;;;22.50;19.75;;;;;;;;4947253;28;11553;-74
2020/12/29 08:34:47;;;;;;;;;17.25;15.00;;;;;;;;4952409;28;11721;-73
2020/12/29 08:37:18;;;;;;;;;11.50;9.50;;;;;;;;4953648;28;11568;-76
2020/12/29 08:40:06;;;;;;;;;16.25;13.50;;;;;;;;4956352;28;11568;-74
2020/12/29 08:42:35;;;;;;;;;69.00;49.25;;;;;;;;4954261;28;11581;-74
2020/12/29 08:45:07;;;;;;;;;17.00;11.75;;;;;;;;4939069;28;11955;-71
2020/12/29 08:47:34;;;;;;;;;18.75;17.50;;;;;;;;4943374;28;11080;-74
2020/12/29 08:50:20;;;;;;;;;11.75;11.75;;;;;;;;4944649;28;11682;-73
2020/12/29 08:52:53;;;;;;;;;15.50;14.25;;;;;;;;4944404;28;11590;-73
2020/12/29 08:55:27;;;;;;;;;19.75;15.50;;;;;;;;4940723;28;11646;-72
2020/12/29 08:57:57;;;;;;;;;15.25;11.00;;;;;;;;4949693;28;11587;-73
2020/12/29 09:00:24;;;;;;;;;14.00;14.00;;;;;;;;4945653;28;11490;-73
2020/12/29 09:02:51;;;;;;;;;14.25;11.75;;;;;;;;4943661;28;11591;-73
2020/12/29 09:05:22;;;;;;;;;14.00;11.75;;;;;;;;4954805;28;11578;-73
2020/12/29 09:07:49;;;;;;;;;14.75;8.25;;;;;;;;4950580;28;11601;-73
2020/12/29 09:10:16;;;;;;;;;12.00;10.00;;;;;;;;4953529;28;11778;-73
2020/12/29 09:12:43;;;;;;;;;13.25;11.00;;;;;;;;4954413;28;11547;-73
2020/12/29 09:15:12;;;;;;;;;15.00;10.50;;;;;;;;4947141;28;11566;-73
2020/12/29 09:17:41;;;;;;;;;13.75;11.25;;;;;;;;4948170;28;11595;-72
2020/12/29 09:20:16;;;;;;;;;14.75;11.75;;;;;;;;4946203;28;12436;-73
2020/12/29 09:23:01;;;;;;;;;12.00;11.50;;;;;;;;4950767;28;12343;-73
2020/12/29 09:25:30;;;;;;;;;12.25;11.75;;;;;;;;4949307;28;11630;-73
2020/12/29 09:28:14;;;;;;;;;11.25;11.25;;;;;;;;4945179;28;11618;-73
2020/12/29 09:30:43;;;;;;;;;19.25;14.25;;;;;;;;4949821;28;11563;-73
2020/12/29 09:33:10;;;;;;;;;15.25;13.25;;;;;;;;4948126;28;11682;-72
2020/12/29 09:35:37;;;;;;;;;9.00;9.00;;;;;;;;4944431;28;11625;-72
2020/12/29 09:38:04;;;;;;;;;9.25;8.75;;;;;;;;4957964;28;11571;-72
2020/12/29 09:40:31;;;;;;;;;5.75;5.75;;;;;;;;4947701;28;11712;-72
2020/12/29 09:42:58;;;;;;;;;9.00;9.00;;;;;;;;4947440;28;11718;-72
2020/12/29 09:45:26;;;;;;;;;8.50;8.00;;;;;;;;4952880;28;11627;-72
2020/12/29 09:47:53;;;;;;;;;6.00;6.00;;;;;;;;4949507;28;11577;-71
2020/12/29 09:50:20;;;;;;;;;8.00;5.50;;;;;;;;4947231;28;12524;-71
2020/12/29 09:52:47;;;;;;;;;11.50;10.00;;;;;;;;4952760;28;11633;-72
2020/12/29 09:55:14;;;;;;;;;9.00;9.00;;;;;;;;4949624;28;11711;-72
2020/12/29 09:57:41;;;;;;;;;8.50;8.50;;;;;;;;4951149;28;11557;-72
2020/12/29 10:00:08;;;;;;;;;13.00;11.00;;;;;;;;4946319;28;11578;-72
2020/12/29 10:02:36;;;;;;;;;5.50;5.50;;;;;;;;4945850;28;11533;-72
2020/12/29 10:05:03;;;;;;;;;4.00;4.00;;;;;;;;4951724;28;11542;-73
2020/12/29 10:07:30;;;;;;;;;6.50;4.00;;;;;;;;4918355;29;11512;-72
2020/12/29 10:09:57;;;;;;;;;6.50;6.00;;;;;;;;4948155;28;11616;-73
2020/12/29 10:12:24;;;;;;;;;5.25;5.25;;;;;;;;4942163;28;12364;-74
2020/12/29 10:14:51;;;;;;;;;6.00;5.00;;;;;;;;4942743;28;11685;-74
2020/12/29 10:17:18;;;;;;;;;6.00;6.00;;;;;;;;4942975;28;11654;-74
2020/12/29 10:19:45;;;;;;;;;4.25;4.25;;;;;;;;4946664;28;11543;-74
2020/12/29 10:22:12;;;;;;;;;6.00;6.00;;;;;;;;4951121;28;11563;-74
2020/12/29 10:24:39;;;;;;;;;5.00;5.00;;;;;;;;4950723;28;11540;-75
2020/12/29 10:27:06;;;;;;;;;4.75;4.75;;;;;;;;4952469;28;11519;-73
2020/12/29 10:29:33;;;;;;;;;6.50;5.00;;;;;;;;4961208;28;11470;-73
2020/12/29 10:32:00;;;;;;;;;5.00;5.00;;;;;;;;4954665;28;11456;-73
2020/12/29 10:34:26;;;;;;;;;5.75;4.50;;;;;;;;4950587;28;11622;-74
2020/12/29 10:36:53;;;;;;;;;6.00;5.75;;;;;;;;4955052;28;11525;-74
2020/12/29 10:39:21;;;;;;;;;4.75;4.75;;;;;;;;4941379;28;11486;-74
2020/12/29 10:41:48;;;;;;;;;5.25;5.25;;;;;;;;4960326;28;11486;-73
2020/12/29 10:44:15;;;;;;;;;6.50;4.00;;;;;;;;4958243;28;11467;-76
2020/12/29 10:46:46;;;;;;;;;4.00;4.00;;;;;;;;4950738;28;11522;-75
2020/12/29 10:49:13;;;;;;;;;7.00;7.00;;;;;;;;4961131;28;12417;-74
2020/12/29 10:51:40;;;;;;;;;5.25;5.25;;;;;;;;4960978;28;11527;-74
2020/12/29 10:54:07;;;;;;;;;6.00;6.00;;;;;;;;4957402;28;11538;-74
2020/12/29 10:56:36;;;;;;;;;5.00;5.00;;;;;;;;4928846;28;12302;-75
2020/12/29 10:59:03;;;;;;;;;6.00;5.50;;;;;;;;4947991;28;11472;-72
2020/12/29 11:01:30;;;;;;;;;6.00;6.00;;;;;;;;4951703;28;11455;-71
2020/12/29 11:03:57;;;;;;;;;7.00;7.00;;;;;;;;4957272;28;11587;-73
2020/12/29 11:06:24;;;;;;;;;5.50;5.50;;;;;;;;4931189;28;11510;-73
2020/12/29 11:08:51;;;;;;;;;5.00;5.00;;;;;;;;4951173;28;11525;-74
2020/12/29 11:11:19;;;;;;;;;7.25;5.50;;;;;;;;4950516;28;11697;-73
2020/12/29 11:13:47;;;;;;;;;7.50;5.75;;;;;;;;4949886;28;12959;-73
2020/12/29 11:16:15;;;;;;;;;5.00;4.00;;;;;;;;4946875;28;11510;-76
2020/12/29 11:18:42;;;;;;;;;7.00;7.00;;;;;;;;4942046;28;11608;-76
2020/12/29 11:21:09;;;;;;;;;7.00;7.00;;;;;;;;4952058;28;11485;-75
2020/12/29 11:23:36;;;;;;;;;5.00;5.00;;;;;;;;4952629;28;11551;-74
2020/12/29 11:26:03;;;;;;;;;7.50;7.50;;;;;;;;4946162;28;11487;-74
2020/12/29 11:28:29;;;;;;;;;10.00;10.00;;;;;;;;4945771;28;12391;-73
2020/12/29 11:30:57;;;;;;;;;8.00;8.00;;;;;;;;4940360;28;11530;-74
2020/12/29 11:33:24;;;;;;;;;10.25;8.00;;;;;;;;4947786;28;11526;-72
2020/12/29 11:35:51;;;;;;;;;11.75;9.75;;;;;;;;4949876;28;11526;-73
2020/12/29 11:38:20;;;;;;;;;9.00;9.00;;;;;;;;4945259;28;12385;-74
2020/12/29 11:40:46;;;;;;;;;8.50;8.50;;;;;;;;4946085;28;11621;-74
2020/12/29 11:43:13;;;;;;;;;11.75;9.00;;;;;;;;4946202;28;11610;-74
2020/12/29 11:45:40;;;;;;;;;9.25;9.25;;;;;;;;4948240;28;11572;-73
2020/12/29 11:48:07;;;;;;;;;9.00;9.00;;;;;;;;4944079;28;11561;-74
2020/12/29 11:50:35;;;;;;;;;10.00;8.25;;;;;;;;4945870;28;11567;-74
2020/12/29 11:53:01;;;;;;;;;15.25;12.00;;;;;;;;4946057;28;11582;-73
2020/12/29 11:55:28;;;;;;;;;10.25;10.25;;;;;;;;4947795;28;11588;-73
2020/12/29 11:57:55;;;;;;;;;14.00;8.00;;;;;;;;4944630;28;12352;-74
2020/12/29 12:00:22;;;;;;;;;10.00;8.75;;;;;;;;4948320;28;11594;-75
2020/12/29 12:02:48;;;;;;;;;13.50;11.25;;;;;;;;4954742;28;11560;-75
2020/12/29 12:05:16;;;;;;;;;8.00;8.00;;;;;;;;4945498;28;12392;-73
2020/12/29 12:07:43;;;;;;;;;13.50;11.50;;;;;;;;4956588;28;11609;-75
2020/12/29 12:10:12;;;;;;;;;13.75;12.25;;;;;;;;4954261;28;11582;-75
2020/12/29 12:12:39;;;;;;;;;12.00;9.50;;;;;;;;4951449;28;12382;-74
2020/12/29 12:15:06;;;;;;;;;7.50;7.50;;;;;;;;4951078;28;11610;-74
2020/12/29 12:17:33;;;;;;;;;7.50;7.50;;;;;;;;4948575;28;11550;-78
2020/12/29 12:20:00;;;;;;;;;13.50;10.50;;;;;;;;4945919;28;11568;-76
2020/12/29 12:22:28;;;;;;;;;10.25;9.75;;;;;;;;4944912;28;11596;-74
2020/12/29 12:24:55;;;;;;;;;8.25;8.25;;;;;;;;4949839;28;11655;-74
2020/12/29 12:27:22;;;;;;;;;8.00;5.25;;;;;;;;4948176;28;11641;-75
2020/12/29 12:29:48;;;;;;;;;8.75;8.75;;;;;;;;4945936;28;12352;-75
2020/12/29 12:32:15;;;;;;;;;11.75;9.50;;;;;;;;4950499;28;11487;-73
2020/12/29 12:34:42;;;;;;;;;12.00;12.00;;;;;;;;4932985;28;11575;-74
2020/12/29 12:37:09;;;;;;;;;14.00;12.00;;;;;;;;4944332;28;11591;-74
2020/12/29 12:39:40;;;;;;;;;12.00;11.75;;;;;;;;4947052;28;11588;-74
2020/12/29 12:42:07;;;;;;;;;7.00;7.00;;;;;;;;4948975;28;13230;-74
2020/12/29 12:44:35;;;;;;;;;12.00;12.00;;;;;;;;4926848;28;12393;-73
2020/12/29 12:47:01;;;;;;;;;18.00;16.25;;;;;;;;4945725;28;12663;-74
2020/12/29 12:49:28;;;;;;;;;13.00;13.00;;;;;;;;4947605;28;11809;-73
2020/12/29 12:51:55;;;;;;;;;13.00;13.00;;;;;;;;4950220;28;11676;-73
2020/12/29 12:54:22;;;;;;;;;13.50;9.25;;;;;;;;4957634;28;11600;-73
2020/12/29 12:56:54;;;;;;;;;11.50;11.50;;;;;;;;4933065;28;11618;-74
2020/12/29 12:59:21;;;;;;;;;15.50;13.50;;;;;;;;4950906;28;11671;-73
2020/12/29 13:01:52;;;;;;;;;14.00;13.25;;;;;;;;4945209;28;11545;-73
2020/12/29 13:04:19;;;;;;;;;15.00;13.50;;;;;;;;4954403;28;11596;-73
2020/12/29 13:06:46;;;;;;;;;14.00;10.25;;;;;;;;4946801;28;11629;-73
2020/12/29 13:09:13;;;;;;;;;13.00;12.50;;;;;;;;4930769;28;11595;-74
2020/12/29 13:11:40;;;;;;;;;16.50;12.25;;;;;;;;4948638;28;11579;-73
2020/12/29 13:14:07;;;;;;;;;17.25;12.75;;;;;;;;4933982;28;11592;-73
2020/12/29 13:16:34;;;;;;;;;15.50;11.75;;;;;;;;4950891;28;12309;-73
2020/12/29 13:19:01;;;;;;;;;8.50;8.50;;;;;;;;4951044;28;11572;-74
2020/12/29 13:21:28;;;;;;;;;10.25;10.25;;;;;;;;4953770;28;11691;-73
2020/12/29 13:23:54;;;;;;;;;11.50;11.00;;;;;;;;4954256;28;11671;-73
2020/12/29 13:26:22;;;;;;;;;12.25;12.25;;;;;;;;4948829;28;11574;-73
2020/12/29 13:28:49;;;;;;;;;12.25;9.50;;;;;;;;4945812;28;11577;-72
2020/12/29 13:31:21;;;;;;;;;18.00;15.00;;;;;;;;4945541;28;11508;-73
2020/12/29 13:33:48;;;;;;;;;13.25;13.25;;;;;;;;4943304;28;11561;-72
2020/12/29 13:36:15;;;;;;;;;9.50;9.50;;;;;;;;4942924;28;11769;-73
2020/12/29 13:38:42;;;;;;;;;12.50;9.00;;;;;;;;4948043;28;11738;-73
2020/12/29 13:41:09;;;;;;;;;15.00;9.25;;;;;;;;4952257;28;11566;-75
2020/12/29 13:43:36;;;;;;;;;12.00;10.25;;;;;;;;4941028;28;11579;-74
2020/12/29 13:46:06;;;;;;;;;12.25;12.25;;;;;;;;4944326;28;11573;-73
2020/12/29 13:48:34;;;;;;;;;12.25;12.25;;;;;;;;4950355;28;11616;-73
2020/12/29 13:51:02;;;;;;;;;13.75;12.00;;;;;;;;4948799;28;11638;-74
2020/12/29 13:53:29;;;;;;;;;12.25;9.50;;;;;;;;4937557;28;11583;-73
2020/12/29 13:55:55;;;;;;;;;12.50;10.25;;;;;;;;4952394;28;11557;-73
2020/12/29 13:58:22;;;;;;;;;11.50;9.00;;;;;;;;4946544;28;11598;-73
2020/12/29 14:00:49;;;;;;;;;16.50;12.25;;;;;;;;4950051;28;11624;-74
2020/12/29 14:03:15;;;;;;;;;8.25;8.25;;;;;;;;4950107;28;11673;-73
2020/12/29 14:05:43;;;;;;;;;13.00;10.25;;;;;;;;4953891;28;11556;-73
2020/12/29 14:08:10;;;;;;;;;8.50;8.50;;;;;;;;4947095;28;11572;-73
2020/12/29 14:10:37;;;;;;;;;9.50;9.50;;;;;;;;4953423;28;11519;-73
2020/12/29 14:13:04;;;;;;;;;8.00;8.00;;;;;;;;4952494;28;11619;-73
2020/12/29 14:15:30;;;;;;;;;8.25;8.25;;;;;;;;4951632;28;12313;-73
2020/12/29 14:17:57;;;;;;;;;12.50;8.75;;;;;;;;4954986;28;11639;-73
2020/12/29 14:20:24;;;;;;;;;10.25;8.50;;;;;;;;4944720;28;11649;-73
2020/12/29 14:22:52;;;;;;;;;9.50;8.25;;;;;;;;4956472;28;11541;-73
2020/12/29 14:25:19;;;;;;;;;8.25;8.25;;;;;;;;4953433;28;11624;-73
2020/12/29 14:27:49;;;;;;;;;10.00;10.00;;;;;;;;4950850;28;11558;-73
2020/12/29 14:30:16;;;;;;;;;5.75;5.75;;;;;;;;4955068;28;11535;-73
2020/12/29 14:32:45;;;;;;;;;22.50;14.75;;;;;;;;4948741;28;11660;-73